sensor_id;sensor_type;location;lat;lon;timestamp;temperature;humidity
48666;DHT22;34452;50.796;4.994;2023-07-29T00:02:01;20.00;99.90
48666;DHT22;34452;50.796;4.994;2023-07-29T00:04:26;20.00;99.90
48666;DHT22;34452;50.796;4.994;2023-07-29T00:06:52;20.00;99.90
48666;DHT22;34452;50.796;4.994;2023-07-29T00:09:18;20.00;99.90
48666;DHT22;34452;50.796;4.994;2023-07-29T00:11:43;20.00;99.90
48666;DHT22;34452;50.796;4.994;2023-07-29T00:14:09;20.00;99.90
48666;DHT22;34452;50.796;4.994;2023-07-29T00:16:35;20.00;99.90
48666;DHT22;34452;50.796;4.994;2023-07-29T00:19:01;20.00;99.90
48666;DHT22;34452;50.796;4.994;2023-07-29T00:21:27;20.00;99.90
48666;DHT22;34452;50.796;4.994;2023-07-29T00:23:53;20.00;99.90
48666;DHT22;34452;50.796;4.994;2023-07-29T00:26:18;20.00;99.90
48666;DHT22;34452;50.796;4.994;2023-07-29T00:28:45;20.00;99.90
48666;DHT22;34452;50.796;4.994;2023-07-29T00:31:10;20.00;99.90
48666;DHT22;34452;50.796;4.994;2023-07-29T00:33:36;20.00;99.90
48666;DHT22;34452;50.796;4.994;2023-07-29T00:36:02;20.00;99.90
48666;DHT22;34452;50.796;4.994;2023-07-29T00:38:28;20.00;99.90
48666;DHT22;34452;50.796;4.994;2023-07-29T00:40:54;20.00;99.90
48666;DHT22;34452;50.796;4.994;2023-07-29T00:43:19;20.00;99.90
48666;DHT22;34452;50.796;4.994;2023-07-29T00:45:45;19.90;99.90
48666;DHT22;34452;50.796;4.994;2023-07-29T00:48:12;19.90;99.90
48666;DHT22;34452;50.796;4.994;2023-07-29T00:50:38;19.90;99.90
48666;DHT22;34452;50.796;4.994;2023-07-29T00:53:03;19.90;99.90
48666;DHT22;34452;50.796;4.994;2023-07-29T00:55:29;19.90;99.90
48666;DHT22;34452;50.796;4.994;2023-07-29T00:57:55;19.90;99.90
48666;DHT22;34452;50.796;4.994;2023-07-29T01:00:22;19.90;99.90
48666;DHT22;34452;50.796;4.994;2023-07-29T01:02:48;19.90;99.90
48666;DHT22;34452;50.796;4.994;2023-07-29T01:05:16;19.90;99.90
48666;DHT22;34452;50.796;4.994;2023-07-29T01:13:48;19.70;99.90
48666;DHT22;34452;50.796;4.994;2023-07-29T01:19:26;19.60;99.90
48666;DHT22;34452;50.796;4.994;2023-07-29T01:21:58;19.50;99.90
48666;DHT22;34452;50.796;4.994;2023-07-29T01:24:23;19.40;99.90
48666;DHT22;34452;50.796;4.994;2023-07-29T01:26:49;19.40;99.90
48666;DHT22;34452;50.796;4.994;2023-07-29T01:29:15;19.30;99.90
48666;DHT22;34452;50.796;4.994;2023-07-29T01:31:44;19.30;99.90
48666;DHT22;34452;50.796;4.994;2023-07-29T01:34:28;19.30;99.90
48666;DHT22;34452;50.796;4.994;2023-07-29T01:36:57;19.20;99.90
48666;DHT22;34452;50.796;4.994;2023-07-29T01:39:26;19.10;99.90
48666;DHT22;34452;50.796;4.994;2023-07-29T01:41:55;19.10;99.90
48666;DHT22;34452;50.796;4.994;2023-07-29T01:44:20;19.10;99.90
48666;DHT22;34452;50.796;4.994;2023-07-29T01:46:47;19.00;99.90
48666;DHT22;34452;50.796;4.994;2023-07-29T01:49:12;18.90;99.90
48666;DHT22;34452;50.796;4.994;2023-07-29T01:51:38;18.90;99.90
48666;DHT22;34452;50.796;4.994;2023-07-29T01:54:04;18.90;99.90
48666;DHT22;34452;50.796;4.994;2023-07-29T01:56:29;18.90;99.90
48666;DHT22;34452;50.796;4.994;2023-07-29T01:58:55;18.80;99.90
48666;DHT22;34452;50.796;4.994;2023-07-29T02:01:21;18.90;99.90
48666;DHT22;34452;50.796;4.994;2023-07-29T02:03:47;18.90;99.90
48666;DHT22;34452;50.796;4.994;2023-07-29T02:06:18;18.80;99.90
48666;DHT22;34452;50.796;4.994;2023-07-29T02:08:44;18.80;99.90
48666;DHT22;34452;50.796;4.994;2023-07-29T02:11:10;18.70;99.90
48666;DHT22;34452;50.796;4.994;2023-07-29T02:13:35;18.70;99.90
48666;DHT22;34452;50.796;4.994;2023-07-29T02:16:01;18.70;99.90
48666;DHT22;34452;50.796;4.994;2023-07-29T02:18:27;18.70;99.90
48666;DHT22;34452;50.796;4.994;2023-07-29T02:20:52;18.70;99.90
48666;DHT22;34452;50.796;4.994;2023-07-29T02:23:18;18.70;99.90
48666;DHT22;34452;50.796;4.994;2023-07-29T02:25:44;18.70;99.90
48666;DHT22;34452;50.796;4.994;2023-07-29T02:28:10;18.70;99.90
48666;DHT22;34452;50.796;4.994;2023-07-29T02:30:36;18.60;99.90
48666;DHT22;34452;50.796;4.994;2023-07-29T02:33:02;18.60;99.90
48666;DHT22;34452;50.796;4.994;2023-07-29T02:35:28;18.60;99.90
48666;DHT22;34452;50.796;4.994;2023-07-29T02:37:54;18.60;99.90
48666;DHT22;34452;50.796;4.994;2023-07-29T02:40:19;18.60;99.90
48666;DHT22;34452;50.796;4.994;2023-07-29T02:42:46;18.50;99.90
48666;DHT22;34452;50.796;4.994;2023-07-29T02:45:12;18.50;99.90
48666;DHT22;34452;50.796;4.994;2023-07-29T02:47:38;18.40;99.90
48666;DHT22;34452;50.796;4.994;2023-07-29T02:50:04;18.40;99.90
48666;DHT22;34452;50.796;4.994;2023-07-29T02:52:30;18.40;99.90
48666;DHT22;34452;50.796;4.994;2023-07-29T02:54:55;18.30;99.90
48666;DHT22;34452;50.796;4.994;2023-07-29T02:57:21;18.30;99.90
48666;DHT22;34452;50.796;4.994;2023-07-29T02:59:47;18.30;99.90
48666;DHT22;34452;50.796;4.994;2023-07-29T03:02:12;18.20;99.90
48666;DHT22;34452;50.796;4.994;2023-07-29T03:04:38;18.20;99.90
48666;DHT22;34452;50.796;4.994;2023-07-29T03:07:04;18.10;99.90
48666;DHT22;34452;50.796;4.994;2023-07-29T03:09:29;18.10;99.90
48666;DHT22;34452;50.796;4.994;2023-07-29T03:11:55;18.10;99.90
48666;DHT22;34452;50.796;4.994;2023-07-29T03:14:22;18.10;99.90
48666;DHT22;34452;50.796;4.994;2023-07-29T03:16:48;18.10;99.90
48666;DHT22;34452;50.796;4.994;2023-07-29T03:19:14;18.10;99.90
48666;DHT22;34452;50.796;4.994;2023-07-29T03:21:40;18.10;99.90
48666;DHT22;34452;50.796;4.994;2023-07-29T03:24:06;18.10;99.90
48666;DHT22;34452;50.796;4.994;2023-07-29T03:26:32;18.10;99.90
48666;DHT22;34452;50.796;4.994;2023-07-29T03:28:58;18.10;99.90
48666;DHT22;34452;50.796;4.994;2023-07-29T03:31:23;18.10;99.90
48666;DHT22;34452;50.796;4.994;2023-07-29T03:33:49;18.10;99.90
48666;DHT22;34452;50.796;4.994;2023-07-29T03:36:15;18.10;99.90
48666;DHT22;34452;50.796;4.994;2023-07-29T03:38:41;18.10;99.90
48666;DHT22;34452;50.796;4.994;2023-07-29T03:41:08;18.00;99.90
48666;DHT22;34452;50.796;4.994;2023-07-29T03:43:34;18.00;99.90
48666;DHT22;34452;50.796;4.994;2023-07-29T03:46:00;18.00;99.90
48666;DHT22;34452;50.796;4.994;2023-07-29T03:48:26;18.00;99.90
48666;DHT22;34452;50.796;4.994;2023-07-29T03:50:51;17.90;99.90
48666;DHT22;34452;50.796;4.994;2023-07-29T03:53:17;17.90;99.90
48666;DHT22;34452;50.796;4.994;2023-07-29T03:55:43;17.90;99.90
48666;DHT22;34452;50.796;4.994;2023-07-29T03:58:09;17.90;99.90
48666;DHT22;34452;50.796;4.994;2023-07-29T04:00:35;17.90;99.90
48666;DHT22;34452;50.796;4.994;2023-07-29T04:03:00;17.90;99.90
48666;DHT22;34452;50.796;4.994;2023-07-29T04:05:26;17.90;99.90
48666;DHT22;34452;50.796;4.994;2023-07-29T04:07:52;17.90;99.90
48666;DHT22;34452;50.796;4.994;2023-07-29T04:10:19;17.90;99.90
48666;DHT22;34452;50.796;4.994;2023-07-29T04:12:45;17.80;99.90
48666;DHT22;34452;50.796;4.994;2023-07-29T04:15:10;17.90;99.90
48666;DHT22;34452;50.796;4.994;2023-07-29T04:17:36;17.90;99.90
48666;DHT22;34452;50.796;4.994;2023-07-29T04:20:02;17.90;99.90
48666;DHT22;34452;50.796;4.994;2023-07-29T04:22:28;17.90;99.90
48666;DHT22;34452;50.796;4.994;2023-07-29T04:24:54;17.90;99.90
48666;DHT22;34452;50.796;4.994;2023-07-29T04:27:19;17.90;99.90
48666;DHT22;34452;50.796;4.994;2023-07-29T04:29:45;17.90;99.90
48666;DHT22;34452;50.796;4.994;2023-07-29T04:32:11;17.90;99.90
48666;DHT22;34452;50.796;4.994;2023-07-29T04:34:36;17.90;99.90
48666;DHT22;34452;50.796;4.994;2023-07-29T04:37:02;17.90;99.90
48666;DHT22;34452;50.796;4.994;2023-07-29T04:39:28;17.90;99.90
48666;DHT22;34452;50.796;4.994;2023-07-29T04:41:53;17.90;99.90
48666;DHT22;34452;50.796;4.994;2023-07-29T04:44:19;17.90;99.90
48666;DHT22;34452;50.796;4.994;2023-07-29T04:46:45;17.90;99.90
48666;DHT22;34452;50.796;4.994;2023-07-29T04:49:11;17.90;99.90
48666;DHT22;34452;50.796;4.994;2023-07-29T04:51:37;17.90;99.90
48666;DHT22;34452;50.796;4.994;2023-07-29T04:54:02;17.90;99.90
48666;DHT22;34452;50.796;4.994;2023-07-29T04:56:28;17.90;99.90
48666;DHT22;34452;50.796;4.994;2023-07-29T04:58:54;17.90;99.90
48666;DHT22;34452;50.796;4.994;2023-07-29T05:01:20;17.90;99.90
48666;DHT22;34452;50.796;4.994;2023-07-29T05:03:45;17.90;99.90
48666;DHT22;34452;50.796;4.994;2023-07-29T05:06:11;18.00;99.90
48666;DHT22;34452;50.796;4.994;2023-07-29T05:08:37;18.00;99.90
48666;DHT22;34452;50.796;4.994;2023-07-29T05:11:02;18.00;99.90
48666;DHT22;34452;50.796;4.994;2023-07-29T05:13:28;18.10;99.90
48666;DHT22;34452;50.796;4.994;2023-07-29T05:15:54;18.10;99.90
48666;DHT22;34452;50.796;4.994;2023-07-29T05:18:20;18.10;99.90
48666;DHT22;34452;50.796;4.994;2023-07-29T05:20:47;18.10;99.90
48666;DHT22;34452;50.796;4.994;2023-07-29T05:23:12;18.20;99.90
48666;DHT22;34452;50.796;4.994;2023-07-29T05:25:38;18.20;99.90
48666;DHT22;34452;50.796;4.994;2023-07-29T05:28:04;18.10;99.90
48666;DHT22;34452;50.796;4.994;2023-07-29T05:30:30;18.10;99.90
48666;DHT22;34452;50.796;4.994;2023-07-29T05:32:59;18.10;99.90
48666;DHT22;34452;50.796;4.994;2023-07-29T05:35:25;18.10;99.90
48666;DHT22;34452;50.796;4.994;2023-07-29T05:37:51;18.10;99.90
48666;DHT22;34452;50.796;4.994;2023-07-29T05:40:16;18.10;99.90
48666;DHT22;34452;50.796;4.994;2023-07-29T05:42:42;18.10;99.90
48666;DHT22;34452;50.796;4.994;2023-07-29T05:45:09;18.10;99.90
48666;DHT22;34452;50.796;4.994;2023-07-29T05:47:36;18.10;99.90
48666;DHT22;34452;50.796;4.994;2023-07-29T05:50:02;18.10;99.90
48666;DHT22;34452;50.796;4.994;2023-07-29T05:52:31;18.00;99.90
48666;DHT22;34452;50.796;4.994;2023-07-29T05:54:57;18.00;99.90
48666;DHT22;34452;50.796;4.994;2023-07-29T05:57:23;18.00;99.90
48666;DHT22;34452;50.796;4.994;2023-07-29T05:59:48;18.00;99.90
48666;DHT22;34452;50.796;4.994;2023-07-29T06:02:14;18.10;99.90
48666;DHT22;34452;50.796;4.994;2023-07-29T06:04:40;18.10;99.90
48666;DHT22;34452;50.796;4.994;2023-07-29T06:07:06;18.20;99.90
48666;DHT22;34452;50.796;4.994;2023-07-29T06:09:32;18.30;99.90
48666;DHT22;34452;50.796;4.994;2023-07-29T06:11:57;18.40;99.90
48666;DHT22;34452;50.796;4.994;2023-07-29T06:14:24;18.50;99.90
48666;DHT22;34452;50.796;4.994;2023-07-29T06:16:49;18.60;99.90
48666;DHT22;34452;50.796;4.994;2023-07-29T06:19:15;18.60;99.90
48666;DHT22;34452;50.796;4.994;2023-07-29T06:21:41;18.60;99.90
48666;DHT22;34452;50.796;4.994;2023-07-29T06:24:06;18.60;99.90
48666;DHT22;34452;50.796;4.994;2023-07-29T06:26:32;18.70;99.90
48666;DHT22;34452;50.796;4.994;2023-07-29T06:28:58;18.80;99.90
48666;DHT22;34452;50.796;4.994;2023-07-29T06:31:24;18.80;99.90
48666;DHT22;34452;50.796;4.994;2023-07-29T06:33:49;18.90;99.90
48666;DHT22;34452;50.796;4.994;2023-07-29T06:36:15;19.00;99.90
48666;DHT22;34452;50.796;4.994;2023-07-29T06:38:41;19.00;99.90
48666;DHT22;34452;50.796;4.994;2023-07-29T06:41:07;19.10;99.90
48666;DHT22;34452;50.796;4.994;2023-07-29T06:43:33;19.20;99.90
48666;DHT22;34452;50.796;4.994;2023-07-29T06:45:58;19.20;99.90
48666;DHT22;34452;50.796;4.994;2023-07-29T06:48:24;19.20;99.90
48666;DHT22;34452;50.796;4.994;2023-07-29T06:50:50;19.20;99.90
48666;DHT22;34452;50.796;4.994;2023-07-29T06:53:16;19.20;99.90
48666;DHT22;34452;50.796;4.994;2023-07-29T06:55:43;19.20;99.90
48666;DHT22;34452;50.796;4.994;2023-07-29T06:58:09;19.30;99.90
48666;DHT22;34452;50.796;4.994;2023-07-29T07:00:35;19.50;99.90
48666;DHT22;34452;50.796;4.994;2023-07-29T07:03:01;19.60;99.90
48666;DHT22;34452;50.796;4.994;2023-07-29T07:05:26;19.60;99.90
48666;DHT22;34452;50.796;4.994;2023-07-29T07:07:52;19.60;99.90
48666;DHT22;34452;50.796;4.994;2023-07-29T07:10:18;19.60;99.90
48666;DHT22;34452;50.796;4.994;2023-07-29T07:12:44;19.60;99.90
48666;DHT22;34452;50.796;4.994;2023-07-29T07:15:10;19.70;99.90
48666;DHT22;34452;50.796;4.994;2023-07-29T07:17:35;19.80;99.90
48666;DHT22;34452;50.796;4.994;2023-07-29T07:20:01;19.80;99.90
48666;DHT22;34452;50.796;4.994;2023-07-29T07:22:27;19.80;99.90
48666;DHT22;34452;50.796;4.994;2023-07-29T07:24:53;19.80;99.90
48666;DHT22;34452;50.796;4.994;2023-07-29T07:27:18;19.80;99.90
48666;DHT22;34452;50.796;4.994;2023-07-29T07:29:44;19.80;99.90
48666;DHT22;34452;50.796;4.994;2023-07-29T07:32:10;19.80;99.90
48666;DHT22;34452;50.796;4.994;2023-07-29T07:34:36;19.70;99.90
48666;DHT22;34452;50.796;4.994;2023-07-29T07:37:01;19.70;99.90
48666;DHT22;34452;50.796;4.994;2023-07-29T07:39:29;19.60;99.90
48666;DHT22;34452;50.796;4.994;2023-07-29T07:41:55;19.60;99.90
48666;DHT22;34452;50.796;4.994;2023-07-29T07:44:21;19.70;99.90
48666;DHT22;34452;50.796;4.994;2023-07-29T07:46:46;19.70;99.90
48666;DHT22;34452;50.796;4.994;2023-07-29T07:49:12;19.80;99.90
48666;DHT22;34452;50.796;4.994;2023-07-29T07:51:38;20.00;99.90
48666;DHT22;34452;50.796;4.994;2023-07-29T07:54:04;20.10;99.90
48666;DHT22;34452;50.796;4.994;2023-07-29T07:56:30;20.30;99.90
48666;DHT22;34452;50.796;4.994;2023-07-29T07:58:56;20.50;99.90
48666;DHT22;34452;50.796;4.994;2023-07-29T08:01:21;20.60;99.90
48666;DHT22;34452;50.796;4.994;2023-07-29T08:03:47;20.60;99.90
48666;DHT22;34452;50.796;4.994;2023-07-29T08:06:13;20.80;99.90
48666;DHT22;34452;50.796;4.994;2023-07-29T08:08:39;20.70;99.90
48666;DHT22;34452;50.796;4.994;2023-07-29T08:11:05;20.70;99.90
48666;DHT22;34452;50.796;4.994;2023-07-29T08:13:30;20.70;99.90
48666;DHT22;34452;50.796;4.994;2023-07-29T08:15:56;20.70;99.90
48666;DHT22;34452;50.796;4.994;2023-07-29T08:18:22;20.70;99.90
48666;DHT22;34452;50.796;4.994;2023-07-29T08:21:00;20.70;99.90
48666;DHT22;34452;50.796;4.994;2023-07-29T08:23:42;20.70;99.90
48666;DHT22;34452;50.796;4.994;2023-07-29T08:26:08;20.70;99.90
48666;DHT22;34452;50.796;4.994;2023-07-29T08:28:35;20.80;99.90
48666;DHT22;34452;50.796;4.994;2023-07-29T08:31:01;20.80;99.90
48666;DHT22;34452;50.796;4.994;2023-07-29T08:33:27;20.80;99.90
48666;DHT22;34452;50.796;4.994;2023-07-29T08:35:53;20.80;99.90
48666;DHT22;34452;50.796;4.994;2023-07-29T08:38:20;20.80;99.90
48666;DHT22;34452;50.796;4.994;2023-07-29T08:40:52;20.90;99.90
48666;DHT22;34452;50.796;4.994;2023-07-29T08:43:20;21.00;99.90
48666;DHT22;34452;50.796;4.994;2023-07-29T08:45:49;21.10;99.90
48666;DHT22;34452;50.796;4.994;2023-07-29T08:48:21;21.10;99.90
48666;DHT22;34452;50.796;4.994;2023-07-29T08:50:49;21.20;99.90
48666;DHT22;34452;50.796;4.994;2023-07-29T08:53:16;21.40;99.90
48666;DHT22;34452;50.796;4.994;2023-07-29T08:55:42;21.60;99.90
48666;DHT22;34452;50.796;4.994;2023-07-29T08:58:07;21.70;99.90
48666;DHT22;34452;50.796;4.994;2023-07-29T09:00:34;21.60;99.90
48666;DHT22;34452;50.796;4.994;2023-07-29T09:03:00;21.80;99.90
48666;DHT22;34452;50.796;4.994;2023-07-29T09:05:33;22.00;99.90
48666;DHT22;34452;50.796;4.994;2023-07-29T09:07:59;22.00;99.90
48666;DHT22;34452;50.796;4.994;2023-07-29T09:10:26;21.90;99.90
48666;DHT22;34452;50.796;4.994;2023-07-29T09:12:52;21.70;99.90
48666;DHT22;34452;50.796;4.994;2023-07-29T09:15:27;21.70;99.90
48666;DHT22;34452;50.796;4.994;2023-07-29T09:17:53;21.70;99.90
48666;DHT22;34452;50.796;4.994;2023-07-29T09:20:35;21.70;99.90
48666;DHT22;34452;50.796;4.994;2023-07-29T09:23:01;21.60;99.90
48666;DHT22;34452;50.796;4.994;2023-07-29T09:25:28;21.50;99.90
48666;DHT22;34452;50.796;4.994;2023-07-29T09:28:09;21.40;99.90
48666;DHT22;34452;50.796;4.994;2023-07-29T09:33:12;21.50;99.90
48666;DHT22;34452;50.796;4.994;2023-07-29T09:35:38;21.80;99.90
48666;DHT22;34452;50.796;4.994;2023-07-29T09:38:05;22.00;99.90
48666;DHT22;34452;50.796;4.994;2023-07-29T09:40:50;22.20;99.90
48666;DHT22;34452;50.796;4.994;2023-07-29T09:43:25;22.40;99.90
48666;DHT22;34452;50.796;4.994;2023-07-29T09:45:52;22.60;99.90
48666;DHT22;34452;50.796;4.994;2023-07-29T09:48:22;22.80;99.90
48666;DHT22;34452;50.796;4.994;2023-07-29T09:50:48;22.80;99.90
48666;DHT22;34452;50.796;4.994;2023-07-29T09:53:14;22.80;99.90
48666;DHT22;34452;50.796;4.994;2023-07-29T09:55:40;22.70;99.90
48666;DHT22;34452;50.796;4.994;2023-07-29T09:58:11;22.70;99.90
48666;DHT22;34452;50.796;4.994;2023-07-29T10:00:37;22.70;99.90
48666;DHT22;34452;50.796;4.994;2023-07-29T10:03:04;22.70;99.90
48666;DHT22;34452;50.796;4.994;2023-07-29T10:05:31;22.70;99.90
48666;DHT22;34452;50.796;4.994;2023-07-29T10:07:58;22.90;99.90
48666;DHT22;34452;50.796;4.994;2023-07-29T10:10:24;23.00;99.90
48666;DHT22;34452;50.796;4.994;2023-07-29T10:12:50;23.00;99.90
48666;DHT22;34452;50.796;4.994;2023-07-29T10:15:15;23.10;99.90
48666;DHT22;34452;50.796;4.994;2023-07-29T10:17:42;23.20;99.90
48666;DHT22;34452;50.796;4.994;2023-07-29T10:20:10;23.40;99.90
48666;DHT22;34452;50.796;4.994;2023-07-29T10:22:40;23.50;99.90
48666;DHT22;34452;50.796;4.994;2023-07-29T10:25:19;23.30;99.90
48666;DHT22;34452;50.796;4.994;2023-07-29T10:28:05;23.30;99.90
48666;DHT22;34452;50.796;4.994;2023-07-29T10:30:31;23.20;99.90
48666;DHT22;34452;50.796;4.994;2023-07-29T10:33:00;23.30;99.90
48666;DHT22;34452;50.796;4.994;2023-07-29T10:35:27;23.70;99.90
48666;DHT22;34452;50.796;4.994;2023-07-29T10:37:53;23.60;99.90
48666;DHT22;34452;50.796;4.994;2023-07-29T10:40:19;23.40;99.90
48666;DHT22;34452;50.796;4.994;2023-07-29T10:43:03;23.20;99.90
48666;DHT22;34452;50.796;4.994;2023-07-29T10:45:46;22.90;99.90
48666;DHT22;34452;50.796;4.994;2023-07-29T10:48:13;22.70;99.90
48666;DHT22;34452;50.796;4.994;2023-07-29T10:56:31;22.10;99.90
48666;DHT22;34452;50.796;4.994;2023-07-29T11:01:39;21.70;99.90
48666;DHT22;34452;50.796;4.994;2023-07-29T11:04:24;21.60;99.90
48666;DHT22;34452;50.796;4.994;2023-07-29T11:09:40;21.60;99.90
48666;DHT22;34452;50.796;4.994;2023-07-29T11:12:36;21.50;99.90
48666;DHT22;34452;50.796;4.994;2023-07-29T11:15:11;21.30;99.90
48666;DHT22;34452;50.796;4.994;2023-07-29T11:17:41;21.10;99.90
48666;DHT22;34452;50.796;4.994;2023-07-29T11:20:07;20.90;99.90
48666;DHT22;34452;50.796;4.994;2023-07-29T11:22:34;20.50;99.90
48666;DHT22;34452;50.796;4.994;2023-07-29T11:25:00;20.30;99.90
48666;DHT22;34452;50.796;4.994;2023-07-29T11:27:26;20.40;99.90
48666;DHT22;34452;50.796;4.994;2023-07-29T11:29:59;20.60;99.90
48666;DHT22;34452;50.796;4.994;2023-07-29T11:32:26;20.70;99.90
48666;DHT22;34452;50.796;4.994;2023-07-29T11:34:51;20.60;99.90
48666;DHT22;34452;50.796;4.994;2023-07-29T11:37:17;20.70;99.90
48666;DHT22;34452;50.796;4.994;2023-07-29T11:39:44;20.80;99.90
48666;DHT22;34452;50.796;4.994;2023-07-29T11:42:12;20.90;99.90
48666;DHT22;34452;50.796;4.994;2023-07-29T11:44:39;21.10;99.90
48666;DHT22;34452;50.796;4.994;2023-07-29T11:47:06;21.10;99.90
48666;DHT22;34452;50.796;4.994;2023-07-29T11:49:35;21.10;99.90
48666;DHT22;34452;50.796;4.994;2023-07-29T11:52:02;20.90;99.90
48666;DHT22;34452;50.796;4.994;2023-07-29T11:54:29;20.80;99.90
48666;DHT22;34452;50.796;4.994;2023-07-29T11:56:55;20.60;99.90
48666;DHT22;34452;50.796;4.994;2023-07-29T11:59:21;20.50;99.90
48666;DHT22;34452;50.796;4.994;2023-07-29T12:01:47;20.50;99.90
48666;DHT22;34452;50.796;4.994;2023-07-29T12:04:13;20.50;99.90
48666;DHT22;34452;50.796;4.994;2023-07-29T12:06:39;20.40;99.90
48666;DHT22;34452;50.796;4.994;2023-07-29T12:09:05;20.40;99.90
48666;DHT22;34452;50.796;4.994;2023-07-29T12:11:32;20.90;99.90
48666;DHT22;34452;50.796;4.994;2023-07-29T12:13:59;21.20;99.90
48666;DHT22;34452;50.796;4.994;2023-07-29T12:16:25;21.50;99.90
48666;DHT22;34452;50.796;4.994;2023-07-29T12:18:51;21.80;99.90
48666;DHT22;34452;50.796;4.994;2023-07-29T12:21:18;22.30;99.90
48666;DHT22;34452;50.796;4.994;2023-07-29T12:23:44;22.50;99.90
48666;DHT22;34452;50.796;4.994;2023-07-29T12:26:10;22.70;99.90
48666;DHT22;34452;50.796;4.994;2023-07-29T12:28:36;23.00;99.90
48666;DHT22;34452;50.796;4.994;2023-07-29T12:31:06;23.10;99.90
48666;DHT22;34452;50.796;4.994;2023-07-29T12:33:35;23.30;99.90
48666;DHT22;34452;50.796;4.994;2023-07-29T12:36:02;23.30;99.90
48666;DHT22;34452;50.796;4.994;2023-07-29T12:38:28;23.10;99.90
48666;DHT22;34452;50.796;4.994;2023-07-29T12:40:54;22.90;99.90
48666;DHT22;34452;50.796;4.994;2023-07-29T12:43:20;23.00;99.90
48666;DHT22;34452;50.796;4.994;2023-07-29T12:45:46;23.00;99.90
48666;DHT22;34452;50.796;4.994;2023-07-29T12:48:12;23.00;99.90
48666;DHT22;34452;50.796;4.994;2023-07-29T12:50:38;23.00;99.90
48666;DHT22;34452;50.796;4.994;2023-07-29T12:53:07;23.40;99.90
48666;DHT22;34452;50.796;4.994;2023-07-29T12:55:33;23.30;99.90
48666;DHT22;34452;50.796;4.994;2023-07-29T12:57:59;23.00;99.90
48666;DHT22;34452;50.796;4.994;2023-07-29T13:00:25;22.80;99.90
48666;DHT22;34452;50.796;4.994;2023-07-29T13:02:51;22.80;99.90
48666;DHT22;34452;50.796;4.994;2023-07-29T13:05:17;23.10;99.90
48666;DHT22;34452;50.796;4.994;2023-07-29T13:07:43;23.00;99.90
48666;DHT22;34452;50.796;4.994;2023-07-29T13:10:09;22.90;99.90
48666;DHT22;34452;50.796;4.994;2023-07-29T13:12:35;22.80;99.90
48666;DHT22;34452;50.796;4.994;2023-07-29T13:15:01;22.70;99.90
48666;DHT22;34452;50.796;4.994;2023-07-29T13:17:27;22.70;99.90
48666;DHT22;34452;50.796;4.994;2023-07-29T13:19:53;22.80;99.90
48666;DHT22;34452;50.796;4.994;2023-07-29T13:22:20;22.70;99.90
48666;DHT22;34452;50.796;4.994;2023-07-29T13:24:46;22.60;99.90
48666;DHT22;34452;50.796;4.994;2023-07-29T13:27:11;22.40;99.90
48666;DHT22;34452;50.796;4.994;2023-07-29T13:29:37;22.30;99.90
48666;DHT22;34452;50.796;4.994;2023-07-29T13:32:03;22.10;99.90
48666;DHT22;34452;50.796;4.994;2023-07-29T13:34:29;21.90;99.90
48666;DHT22;34452;50.796;4.994;2023-07-29T13:36:55;21.90;99.90
48666;DHT22;34452;50.796;4.994;2023-07-29T13:39:20;21.70;99.90
48666;DHT22;34452;50.796;4.994;2023-07-29T13:41:46;21.90;99.90
48666;DHT22;34452;50.796;4.994;2023-07-29T13:44:12;22.20;99.90
48666;DHT22;34452;50.796;4.994;2023-07-29T13:46:37;22.50;99.90
48666;DHT22;34452;50.796;4.994;2023-07-29T13:49:03;22.70;99.90
48666;DHT22;34452;50.796;4.994;2023-07-29T13:51:29;22.60;99.90
48666;DHT22;34452;50.796;4.994;2023-07-29T13:53:55;22.50;99.90
48666;DHT22;34452;50.796;4.994;2023-07-29T13:56:22;22.30;99.90
48666;DHT22;34452;50.796;4.994;2023-07-29T13:58:47;22.20;99.90
48666;DHT22;34452;50.796;4.994;2023-07-29T14:01:13;22.10;99.90
48666;DHT22;34452;50.796;4.994;2023-07-29T14:03:39;22.00;99.90
48666;DHT22;34452;50.796;4.994;2023-07-29T14:06:05;21.90;99.90
48666;DHT22;34452;50.796;4.994;2023-07-29T14:08:30;21.90;99.90
48666;DHT22;34452;50.796;4.994;2023-07-29T14:10:56;22.00;99.90
48666;DHT22;34452;50.796;4.994;2023-07-29T14:13:22;22.00;99.90
48666;DHT22;34452;50.796;4.994;2023-07-29T14:15:47;22.30;99.90
48666;DHT22;34452;50.796;4.994;2023-07-29T14:18:13;22.90;99.90
48666;DHT22;34452;50.796;4.994;2023-07-29T14:20:39;23.20;99.90
48666;DHT22;34452;50.796;4.994;2023-07-29T14:23:05;23.30;99.90
48666;DHT22;34452;50.796;4.994;2023-07-29T14:25:31;23.40;99.90
48666;DHT22;34452;50.796;4.994;2023-07-29T14:27:56;23.60;99.90
48666;DHT22;34452;50.796;4.994;2023-07-29T14:30:22;23.70;99.90
48666;DHT22;34452;50.796;4.994;2023-07-29T14:32:48;23.70;99.90
48666;DHT22;34452;50.796;4.994;2023-07-29T14:35:14;23.70;99.90
48666;DHT22;34452;50.796;4.994;2023-07-29T14:37:40;24.10;99.90
48666;DHT22;34452;50.796;4.994;2023-07-29T14:40:06;24.50;99.90
48666;DHT22;34452;50.796;4.994;2023-07-29T14:42:32;24.80;99.90
48666;DHT22;34452;50.796;4.994;2023-07-29T14:44:58;24.90;99.90
48666;DHT22;34452;50.796;4.994;2023-07-29T14:47:24;25.10;99.90
48666;DHT22;34452;50.796;4.994;2023-07-29T14:49:50;25.50;99.90
48666;DHT22;34452;50.796;4.994;2023-07-29T14:52:15;25.70;99.90
48666;DHT22;34452;50.796;4.994;2023-07-29T14:54:41;26.00;99.90
48666;DHT22;34452;50.796;4.994;2023-07-29T14:57:07;25.60;99.90
48666;DHT22;34452;50.796;4.994;2023-07-29T14:59:33;25.40;99.90
48666;DHT22;34452;50.796;4.994;2023-07-29T15:01:58;25.00;99.90
48666;DHT22;34452;50.796;4.994;2023-07-29T15:04:24;24.80;99.90
48666;DHT22;34452;50.796;4.994;2023-07-29T15:06:50;24.60;99.90
48666;DHT22;34452;50.796;4.994;2023-07-29T15:09:16;24.50;99.90
48666;DHT22;34452;50.796;4.994;2023-07-29T15:11:42;24.40;99.90
48666;DHT22;34452;50.796;4.994;2023-07-29T15:14:07;24.70;99.90
48666;DHT22;34452;50.796;4.994;2023-07-29T15:16:33;24.60;99.90
48666;DHT22;34452;50.796;4.994;2023-07-29T15:19:02;24.50;99.90
48666;DHT22;34452;50.796;4.994;2023-07-29T15:21:29;24.30;99.90
48666;DHT22;34452;50.796;4.994;2023-07-29T15:23:54;24.10;99.90
48666;DHT22;34452;50.796;4.994;2023-07-29T15:26:20;23.80;99.90
48666;DHT22;34452;50.796;4.994;2023-07-29T15:28:46;23.70;99.90
48666;DHT22;34452;50.796;4.994;2023-07-29T15:31:13;23.60;99.90
48666;DHT22;34452;50.796;4.994;2023-07-29T15:33:39;23.60;99.90
48666;DHT22;34452;50.796;4.994;2023-07-29T15:36:05;23.70;99.90
48666;DHT22;34452;50.796;4.994;2023-07-29T15:38:30;23.70;99.90
48666;DHT22;34452;50.796;4.994;2023-07-29T15:40:56;23.80;99.90
48666;DHT22;34452;50.796;4.994;2023-07-29T15:43:23;23.90;99.90
48666;DHT22;34452;50.796;4.994;2023-07-29T15:45:49;24.40;99.90
48666;DHT22;34452;50.796;4.994;2023-07-29T15:48:15;25.80;99.90
48666;DHT22;34452;50.796;4.994;2023-07-29T15:50:41;26.80;99.90